sensor_id;sensor_type;location;lat;lon;timestamp;P1;durP1;ratioP1;P2;durP2;ratioP2
13202;SDS011;6666;51.626;7.530;2022-07-29T00:01:40;6.90;;;1.10;;
13202;SDS011;6666;51.626;7.530;2022-07-29T00:04:09;2.10;;;0.93;;
13202;SDS011;6666;51.626;7.530;2022-07-29T00:06:38;2.77;;;1.00;;
13202;SDS011;6666;51.626;7.530;2022-07-29T00:09:07;1.63;;;1.00;;
13202;SDS011;6666;51.626;7.530;2022-07-29T00:11:35;1.90;;;1.10;;
13202;SDS011;6666;51.626;7.530;2022-07-29T00:14:05;1.90;;;0.90;;
13202;SDS011;6666;51.626;7.530;2022-07-29T00:16:33;2.20;;;0.90;;
13202;SDS011;6666;51.626;7.530;2022-07-29T00:19:02;3.30;;;1.07;;
13202;SDS011;6666;51.626;7.530;2022-07-29T00:21:33;12.13;;;1.30;;
13202;SDS011;6666;51.626;7.530;2022-07-29T00:24:01;3.90;;;1.30;;
13202;SDS011;6666;51.626;7.530;2022-07-29T00:26:30;6.40;;;1.20;;
13202;SDS011;6666;51.626;7.530;2022-07-29T00:28:59;2.05;;;1.02;;
13202;SDS011;6666;51.626;7.530;2022-07-29T00:31:49;3.90;;;1.10;;
13202;SDS011;6666;51.626;7.530;2022-07-29T00:34:17;4.77;;;1.10;;
13202;SDS011;6666;51.626;7.530;2022-07-29T00:37:03;3.70;;;1.00;;
13202;SDS011;6666;51.626;7.530;2022-07-29T00:39:33;3.42;;;1.05;;
13202;SDS011;6666;51.626;7.530;2022-07-29T00:42:02;4.30;;;1.10;;
13202;SDS011;6666;51.626;7.530;2022-07-29T00:44:32;6.40;;;1.00;;
13202;SDS011;6666;51.626;7.530;2022-07-29T00:47:06;1.20;;;0.90;;
13202;SDS011;6666;51.626;7.530;2022-07-29T00:49:35;6.20;;;1.30;;
13202;SDS011;6666;51.626;7.530;2022-07-29T00:52:04;3.43;;;1.10;;
13202;SDS011;6666;51.626;7.530;2022-07-29T00:54:34;2.60;;;1.10;;
13202;SDS011;6666;51.626;7.530;2022-07-29T00:57:10;4.60;;;1.10;;
13202;SDS011;6666;51.626;7.530;2022-07-29T00:59:39;2.70;;;1.00;;
13202;SDS011;6666;51.626;7.530;2022-07-29T01:02:09;3.50;;;1.00;;
13202;SDS011;6666;51.626;7.530;2022-07-29T01:04:37;3.60;;;0.90;;
13202;SDS011;6666;51.626;7.530;2022-07-29T01:07:06;2.57;;;1.13;;
13202;SDS011;6666;51.626;7.530;2022-07-29T01:09:35;2.47;;;1.10;;
13202;SDS011;6666;51.626;7.530;2022-07-29T01:12:12;2.20;;;1.00;;
13202;SDS011;6666;51.626;7.530;2022-07-29T01:14:43;4.60;;;1.10;;
13202;SDS011;6666;51.626;7.530;2022-07-29T01:17:14;2.40;;;0.98;;
13202;SDS011;6666;51.626;7.530;2022-07-29T01:19:49;4.97;;;1.10;;
13202;SDS011;6666;51.626;7.530;2022-07-29T01:25:30;3.70;;;1.00;;
13202;SDS011;6666;51.626;7.530;2022-07-29T01:28:33;5.07;;;1.20;;
13202;SDS011;6666;51.626;7.530;2022-07-29T01:31:11;1.67;;;0.95;;
13202;SDS011;6666;51.626;7.530;2022-07-29T01:33:59;2.65;;;1.10;;
13202;SDS011;6666;51.626;7.530;2022-07-29T01:36:32;2.00;;;0.90;;
13202;SDS011;6666;51.626;7.530;2022-07-29T01:39:05;3.30;;;1.20;;
13202;SDS011;6666;51.626;7.530;2022-07-29T01:41:36;4.10;;;1.00;;
13202;SDS011;6666;51.626;7.530;2022-07-29T01:44:13;3.83;;;1.00;;
13202;SDS011;6666;51.626;7.530;2022-07-29T01:46:48;5.43;;;1.10;;
13202;SDS011;6666;51.626;7.530;2022-07-29T01:49:22;2.20;;;1.10;;
13202;SDS011;6666;51.626;7.530;2022-07-29T01:51:56;1.60;;;0.90;;
13202;SDS011;6666;51.626;7.530;2022-07-29T01:54:29;3.40;;;1.00;;
13202;SDS011;6666;51.626;7.530;2022-07-29T01:57:01;4.80;;;1.40;;
13202;SDS011;6666;51.626;7.530;2022-07-29T01:59:35;4.20;;;1.20;;
13202;SDS011;6666;51.626;7.530;2022-07-29T02:02:05;3.72;;;1.25;;
13202;SDS011;6666;51.626;7.530;2022-07-29T02:04:35;2.58;;;0.90;;
13202;SDS011;6666;51.626;7.530;2022-07-29T02:07:05;2.78;;;1.00;;
13202;SDS011;6666;51.626;7.530;2022-07-29T02:09:34;2.60;;;1.20;;
13202;SDS011;6666;51.626;7.530;2022-07-29T02:12:05;3.73;;;1.00;;
13202;SDS011;6666;51.626;7.530;2022-07-29T02:14:39;2.70;;;1.10;;
13202;SDS011;6666;51.626;7.530;2022-07-29T02:17:10;4.65;;;1.20;;
13202;SDS011;6666;51.626;7.530;2022-07-29T02:19:41;3.20;;;1.00;;
13202;SDS011;6666;51.626;7.530;2022-07-29T02:22:12;5.10;;;1.30;;
13202;SDS011;6666;51.626;7.530;2022-07-29T02:24:42;7.43;;;1.20;;
13202;SDS011;6666;51.626;7.530;2022-07-29T02:27:12;2.50;;;1.10;;
13202;SDS011;6666;51.626;7.530;2022-07-29T02:29:42;2.90;;;1.10;;
13202;SDS011;6666;51.626;7.530;2022-07-29T02:32:13;3.20;;;0.90;;
13202;SDS011;6666;51.626;7.530;2022-07-29T02:34:43;4.70;;;1.10;;
13202;SDS011;6666;51.626;7.530;2022-07-29T02:37:12;1.65;;;1.10;;
13202;SDS011;6666;51.626;7.530;2022-07-29T02:39:42;2.15;;;1.00;;
13202;SDS011;6666;51.626;7.530;2022-07-29T02:42:13;4.50;;;1.10;;
13202;SDS011;6666;51.626;7.530;2022-07-29T02:44:45;6.78;;;1.90;;
13202;SDS011;6666;51.626;7.530;2022-07-29T02:47:14;2.25;;;1.13;;
13202;SDS011;6666;51.626;7.530;2022-07-29T02:49:49;1.60;;;1.30;;
13202;SDS011;6666;51.626;7.530;2022-07-29T02:52:23;1.90;;;1.00;;
13202;SDS011;6666;51.626;7.530;2022-07-29T02:54:54;2.17;;;1.00;;
13202;SDS011;6666;51.626;7.530;2022-07-29T02:57:29;3.88;;;1.10;;
13202;SDS011;6666;51.626;7.530;2022-07-29T03:00:03;6.43;;;1.50;;
13202;SDS011;6666;51.626;7.530;2022-07-29T03:02:35;2.30;;;1.20;;
13202;SDS011;6666;51.626;7.530;2022-07-29T03:05:06;3.55;;;0.95;;
13202;SDS011;6666;51.626;7.530;2022-07-29T03:07:38;2.97;;;1.10;;
13202;SDS011;6666;51.626;7.530;2022-07-29T03:10:07;3.65;;;1.10;;
13202;SDS011;6666;51.626;7.530;2022-07-29T03:12:39;5.68;;;1.50;;
13202;SDS011;6666;51.626;7.530;2022-07-29T03:15:10;7.03;;;1.20;;
13202;SDS011;6666;51.626;7.530;2022-07-29T03:17:39;2.83;;;1.10;;
13202;SDS011;6666;51.626;7.530;2022-07-29T03:20:08;4.90;;;1.30;;
13202;SDS011;6666;51.626;7.530;2022-07-29T03:22:38;3.50;;;1.10;;
13202;SDS011;6666;51.626;7.530;2022-07-29T03:25:10;4.13;;;1.20;;
13202;SDS011;6666;51.626;7.530;2022-07-29T03:27:39;4.00;;;1.50;;
13202;SDS011;6666;51.626;7.530;2022-07-29T03:30:07;4.40;;;1.30;;
13202;SDS011;6666;51.626;7.530;2022-07-29T03:32:47;3.13;;;1.00;;
13202;SDS011;6666;51.626;7.530;2022-07-29T03:35:17;4.10;;;0.97;;
13202;SDS011;6666;51.626;7.530;2022-07-29T03:37:46;2.10;;;0.90;;
13202;SDS011;6666;51.626;7.530;2022-07-29T03:40:16;7.90;;;1.30;;
13202;SDS011;6666;51.626;7.530;2022-07-29T03:42:49;2.03;;;1.08;;
13202;SDS011;6666;51.626;7.530;2022-07-29T03:45:20;10.80;;;1.30;;
13202;SDS011;6666;51.626;7.530;2022-07-29T03:47:51;3.80;;;1.30;;
13202;SDS011;6666;51.626;7.530;2022-07-29T03:50:27;2.10;;;1.20;;
13202;SDS011;6666;51.626;7.530;2022-07-29T03:52:57;2.17;;;1.20;;
13202;SDS011;6666;51.626;7.530;2022-07-29T03:55:28;3.17;;;1.50;;
13202;SDS011;6666;51.626;7.530;2022-07-29T03:57:59;3.40;;;1.30;;
13202;SDS011;6666;51.626;7.530;2022-07-29T04:00:31;2.03;;;1.00;;
13202;SDS011;6666;51.626;7.530;2022-07-29T04:03:00;2.40;;;1.13;;
13202;SDS011;6666;51.626;7.530;2022-07-29T04:05:29;3.67;;;1.10;;
13202;SDS011;6666;51.626;7.530;2022-07-29T04:07:57;2.55;;;1.30;;
13202;SDS011;6666;51.626;7.530;2022-07-29T04:10:26;6.90;;;1.30;;
13202;SDS011;6666;51.626;7.530;2022-07-29T04:12:59;6.47;;;1.15;;
13202;SDS011;6666;51.626;7.530;2022-07-29T04:15:27;9.65;;;1.40;;
13202;SDS011;6666;51.626;7.530;2022-07-29T04:17:58;4.50;;;1.20;;
13202;SDS011;6666;51.626;7.530;2022-07-29T04:20:27;6.20;;;1.40;;
13202;SDS011;6666;51.626;7.530;2022-07-29T04:22:55;5.00;;;1.50;;
13202;SDS011;6666;51.626;7.530;2022-07-29T04:25:23;4.82;;;1.42;;
13202;SDS011;6666;51.626;7.530;2022-07-29T04:27:52;4.60;;;1.35;;
13202;SDS011;6666;51.626;7.530;2022-07-29T04:30:29;4.50;;;1.20;;
13202;SDS011;6666;51.626;7.530;2022-07-29T04:33:00;3.80;;;1.40;;
13202;SDS011;6666;51.626;7.530;2022-07-29T04:35:29;3.72;;;1.30;;
13202;SDS011;6666;51.626;7.530;2022-07-29T04:38:04;4.88;;;1.45;;
13202;SDS011;6666;51.626;7.530;2022-07-29T04:40:42;4.70;;;1.48;;
13202;SDS011;6666;51.626;7.530;2022-07-29T04:43:12;3.08;;;1.30;;
13202;SDS011;6666;51.626;7.530;2022-07-29T04:45:41;2.28;;;1.15;;
13202;SDS011;6666;51.626;7.530;2022-07-29T04:48:11;3.70;;;1.60;;
13202;SDS011;6666;51.626;7.530;2022-07-29T04:50:39;4.35;;;1.23;;
13202;SDS011;6666;51.626;7.530;2022-07-29T04:53:08;7.65;;;1.45;;
13202;SDS011;6666;51.626;7.530;2022-07-29T04:55:36;4.50;;;0.90;;
13202;SDS011;6666;51.626;7.530;2022-07-29T04:58:05;2.35;;;1.30;;
13202;SDS011;6666;51.626;7.530;2022-07-29T05:00:34;2.72;;;1.20;;
13202;SDS011;6666;51.626;7.530;2022-07-29T05:03:02;3.13;;;1.40;;
13202;SDS011;6666;51.626;7.530;2022-07-29T05:05:32;7.90;;;1.50;;
13202;SDS011;6666;51.626;7.530;2022-07-29T05:08:00;6.28;;;1.30;;
13202;SDS011;6666;51.626;7.530;2022-07-29T05:10:29;1.97;;;1.10;;
13202;SDS011;6666;51.626;7.530;2022-07-29T05:12:57;4.60;;;1.20;;
13202;SDS011;6666;51.626;7.530;2022-07-29T05:15:25;1.85;;;1.02;;
13202;SDS011;6666;51.626;7.530;2022-07-29T05:17:54;1.85;;;1.10;;
13202;SDS011;6666;51.626;7.530;2022-07-29T05:20:22;2.78;;;1.10;;
13202;SDS011;6666;51.626;7.530;2022-07-29T05:22:56;2.83;;;1.20;;
13202;SDS011;6666;51.626;7.530;2022-07-29T05:25:25;1.73;;;1.05;;
13202;SDS011;6666;51.626;7.530;2022-07-29T05:28:09;2.87;;;1.60;;
13202;SDS011;6666;51.626;7.530;2022-07-29T05:30:37;7.25;;;3.65;;
13202;SDS011;6666;51.626;7.530;2022-07-29T05:33:06;11.02;;;6.60;;
13202;SDS011;6666;51.626;7.530;2022-07-29T05:35:54;6.63;;;4.45;;
13202;SDS011;6666;51.626;7.530;2022-07-29T05:38:28;4.85;;;3.08;;
13202;SDS011;6666;51.626;7.530;2022-07-29T05:40:57;5.70;;;2.90;;
13202;SDS011;6666;51.626;7.530;2022-07-29T05:43:26;1.40;;;1.30;;
13202;SDS011;6666;51.626;7.530;2022-07-29T05:45:54;5.90;;;1.40;;
13202;SDS011;6666;51.626;7.530;2022-07-29T05:48:23;3.78;;;1.20;;
13202;SDS011;6666;51.626;7.530;2022-07-29T05:50:52;7.72;;;1.30;;
13202;SDS011;6666;51.626;7.530;2022-07-29T05:53:20;5.45;;;1.33;;
13202;SDS011;6666;51.626;7.530;2022-07-29T05:55:50;2.40;;;1.30;;
13202;SDS011;6666;51.626;7.530;2022-07-29T05:58:19;5.95;;;1.20;;
13202;SDS011;6666;51.626;7.530;2022-07-29T06:00:47;3.72;;;1.50;;
13202;SDS011;6666;51.626;7.530;2022-07-29T06:03:16;1.30;;;0.90;;
13202;SDS011;6666;51.626;7.530;2022-07-29T06:05:44;1.88;;;1.23;;
13202;SDS011;6666;51.626;7.530;2022-07-29T06:08:12;2.80;;;1.85;;
13202;SDS011;6666;51.626;7.530;2022-07-29T06:10:41;3.33;;;1.38;;
13202;SDS011;6666;51.626;7.530;2022-07-29T06:13:10;3.92;;;1.30;;
13202;SDS011;6666;51.626;7.530;2022-07-29T06:15:39;3.50;;;1.40;;
13202;SDS011;6666;51.626;7.530;2022-07-29T06:18:07;2.88;;;1.25;;
13202;SDS011;6666;51.626;7.530;2022-07-29T06:20:37;5.50;;;1.50;;
13202;SDS011;6666;51.626;7.530;2022-07-29T06:23:05;3.42;;;1.40;;
13202;SDS011;6666;51.626;7.530;2022-07-29T06:25:33;5.05;;;1.40;;
13202;SDS011;6666;51.626;7.530;2022-07-29T06:28:03;3.75;;;1.20;;
13202;SDS011;6666;51.626;7.530;2022-07-29T06:30:33;4.78;;;1.40;;
13202;SDS011;6666;51.626;7.530;2022-07-29T06:33:01;5.07;;;1.20;;
13202;SDS011;6666;51.626;7.530;2022-07-29T06:35:30;2.80;;;1.40;;
13202;SDS011;6666;51.626;7.530;2022-07-29T06:38:06;4.90;;;1.20;;
13202;SDS011;6666;51.626;7.530;2022-07-29T06:40:55;3.90;;;1.30;;
13202;SDS011;6666;51.626;7.530;2022-07-29T06:43:31;2.92;;;1.30;;
13202;SDS011;6666;51.626;7.530;2022-07-29T06:46:19;2.40;;;1.20;;
13202;SDS011;6666;51.626;7.530;2022-07-29T06:48:49;4.93;;;1.40;;
13202;SDS011;6666;51.626;7.530;2022-07-29T06:51:19;3.20;;;1.07;;
13202;SDS011;6666;51.626;7.530;2022-07-29T06:53:49;1.70;;;1.20;;
13202;SDS011;6666;51.626;7.530;2022-07-29T06:56:27;5.10;;;1.20;;
13202;SDS011;6666;51.626;7.530;2022-07-29T06:58:55;3.30;;;1.23;;
13202;SDS011;6666;51.626;7.530;2022-07-29T07:01:25;2.80;;;1.50;;
13202;SDS011;6666;51.626;7.530;2022-07-29T07:03:53;2.10;;;1.27;;
13202;SDS011;6666;51.626;7.530;2022-07-29T07:06:21;4.60;;;1.20;;
13202;SDS011;6666;51.626;7.530;2022-07-29T07:08:50;3.60;;;1.30;;
13202;SDS011;6666;51.626;7.530;2022-07-29T07:11:18;3.70;;;1.38;;
13202;SDS011;6666;51.626;7.530;2022-07-29T07:13:46;2.15;;;1.30;;
13202;SDS011;6666;51.626;7.530;2022-07-29T07:16:15;6.30;;;1.20;;
13202;SDS011;6666;51.626;7.530;2022-07-29T07:18:45;2.20;;;1.00;;
13202;SDS011;6666;51.626;7.530;2022-07-29T07:21:13;3.13;;;1.40;;
13202;SDS011;6666;51.626;7.530;2022-07-29T07:23:44;2.70;;;1.10;;
13202;SDS011;6666;51.626;7.530;2022-07-29T07:26:13;2.47;;;1.30;;
13202;SDS011;6666;51.626;7.530;2022-07-29T07:28:41;2.50;;;1.02;;
13202;SDS011;6666;51.626;7.530;2022-07-29T07:31:10;2.65;;;1.10;;
13202;SDS011;6666;51.626;7.530;2022-07-29T07:33:38;4.70;;;1.30;;
13202;SDS011;6666;51.626;7.530;2022-07-29T07:36:08;5.47;;;1.40;;
13202;SDS011;6666;51.626;7.530;2022-07-29T07:38:36;2.03;;;1.08;;
13202;SDS011;6666;51.626;7.530;2022-07-29T07:41:05;3.47;;;1.10;;
13202;SDS011;6666;51.626;7.530;2022-07-29T07:43:33;7.70;;;1.00;;
13202;SDS011;6666;51.626;7.530;2022-07-29T07:46:01;3.20;;;1.40;;
13202;SDS011;6666;51.626;7.530;2022-07-29T07:48:30;2.50;;;1.00;;
13202;SDS011;6666;51.626;7.530;2022-07-29T07:50:58;4.38;;;1.10;;
13202;SDS011;6666;51.626;7.530;2022-07-29T07:53:28;3.40;;;1.30;;
13202;SDS011;6666;51.626;7.530;2022-07-29T07:55:57;2.30;;;0.90;;
13202;SDS011;6666;51.626;7.530;2022-07-29T07:58:36;3.70;;;1.23;;
13202;SDS011;6666;51.626;7.530;2022-07-29T08:01:05;2.77;;;1.20;;
13202;SDS011;6666;51.626;7.530;2022-07-29T08:03:33;5.70;;;1.30;;
13202;SDS011;6666;51.626;7.530;2022-07-29T08:06:02;2.90;;;1.40;;
13202;SDS011;6666;51.626;7.530;2022-07-29T08:08:32;6.88;;;1.40;;
13202;SDS011;6666;51.626;7.530;2022-07-29T08:11:00;3.13;;;1.10;;
13202;SDS011;6666;51.626;7.530;2022-07-29T08:13:35;2.80;;;1.10;;
13202;SDS011;6666;51.626;7.530;2022-07-29T08:16:05;4.63;;;2.00;;
13202;SDS011;6666;51.626;7.530;2022-07-29T08:18:42;4.50;;;1.40;;
13202;SDS011;6666;51.626;7.530;2022-07-29T08:21:12;5.13;;;1.38;;
13202;SDS011;6666;51.626;7.530;2022-07-29T08:23:42;5.38;;;1.20;;
13202;SDS011;6666;51.626;7.530;2022-07-29T08:26:26;4.40;;;1.30;;
13202;SDS011;6666;51.626;7.530;2022-07-29T08:28:54;1.80;;;1.00;;
13202;SDS011;6666;51.626;7.530;2022-07-29T08:31:22;2.47;;;1.10;;
13202;SDS011;6666;51.626;7.530;2022-07-29T08:33:51;3.10;;;1.10;;
13202;SDS011;6666;51.626;7.530;2022-07-29T08:36:19;2.30;;;1.20;;
13202;SDS011;6666;51.626;7.530;2022-07-29T08:38:49;3.60;;;1.40;;
13202;SDS011;6666;51.626;7.530;2022-07-29T08:41:18;4.87;;;1.60;;
13202;SDS011;6666;51.626;7.530;2022-07-29T08:43:47;6.80;;;1.60;;
13202;SDS011;6666;51.626;7.530;2022-07-29T08:46:16;2.58;;;1.60;;
13202;SDS011;6666;51.626;7.530;2022-07-29T08:48:46;4.15;;;1.17;;
13202;SDS011;6666;51.626;7.530;2022-07-29T08:51:16;2.50;;;1.00;;
13202;SDS011;6666;51.626;7.530;2022-07-29T08:53:45;1.70;;;1.00;;
13202;SDS011;6666;51.626;7.530;2022-07-29T08:56:17;3.75;;;1.60;;
13202;SDS011;6666;51.626;7.530;2022-07-29T08:58:46;7.32;;;1.40;;
13202;SDS011;6666;51.626;7.530;2022-07-29T09:01:20;1.50;;;1.00;;
13202;SDS011;6666;51.626;7.530;2022-07-29T09:04:10;2.60;;;1.15;;
13202;SDS011;6666;51.626;7.530;2022-07-29T09:06:40;4.00;;;1.30;;
13202;SDS011;6666;51.626;7.530;2022-07-29T09:09:11;5.55;;;1.35;;
13202;SDS011;6666;51.626;7.530;2022-07-29T09:11:42;2.60;;;1.20;;
13202;SDS011;6666;51.626;7.530;2022-07-29T09:14:11;5.05;;;1.40;;
13202;SDS011;6666;51.626;7.530;2022-07-29T09:16:44;2.40;;;1.30;;
13202;SDS011;6666;51.626;7.530;2022-07-29T09:19:21;2.90;;;1.30;;
13202;SDS011;6666;51.626;7.530;2022-07-29T09:21:55;4.97;;;1.20;;
13202;SDS011;6666;51.626;7.530;2022-07-29T09:24:42;4.45;;;1.30;;
13202;SDS011;6666;51.626;7.530;2022-07-29T09:27:19;3.83;;;1.20;;
13202;SDS011;6666;51.626;7.530;2022-07-29T09:29:58;3.05;;;1.40;;
13202;SDS011;6666;51.626;7.530;2022-07-29T09:32:27;3.30;;;1.60;;
13202;SDS011;6666;51.626;7.530;2022-07-29T09:35:15;4.05;;;1.40;;
13202;SDS011;6666;51.626;7.530;2022-07-29T09:37:44;5.00;;;1.48;;
13202;SDS011;6666;51.626;7.530;2022-07-29T09:40:14;3.78;;;1.40;;
13202;SDS011;6666;51.626;7.530;2022-07-29T09:42:45;4.95;;;1.40;;
13202;SDS011;6666;51.626;7.530;2022-07-29T09:45:25;2.53;;;1.50;;
13202;SDS011;6666;51.626;7.530;2022-07-29T09:47:56;3.17;;;1.42;;
13202;SDS011;6666;51.626;7.530;2022-07-29T09:50:36;4.30;;;1.40;;
13202;SDS011;6666;51.626;7.530;2022-07-29T09:53:05;3.60;;;1.33;;
13202;SDS011;6666;51.626;7.530;2022-07-29T09:55:45;4.72;;;1.40;;
13202;SDS011;6666;51.626;7.530;2022-07-29T09:58:18;6.30;;;1.70;;
13202;SDS011;6666;51.626;7.530;2022-07-29T10:00:48;3.88;;;1.40;;
13202;SDS011;6666;51.626;7.530;2022-07-29T10:03:18;3.60;;;1.90;;
13202;SDS011;6666;51.626;7.530;2022-07-29T10:06:03;4.50;;;1.50;;
13202;SDS011;6666;51.626;7.530;2022-07-29T10:08:33;3.50;;;1.80;;
13202;SDS011;6666;51.626;7.530;2022-07-29T10:11:09;7.22;;;1.50;;
13202;SDS011;6666;51.626;7.530;2022-07-29T10:13:40;1.50;;;1.20;;
13202;SDS011;6666;51.626;7.530;2022-07-29T10:16:09;4.72;;;1.55;;
13202;SDS011;6666;51.626;7.530;2022-07-29T10:18:40;3.50;;;1.30;;
13202;SDS011;6666;51.626;7.530;2022-07-29T10:21:08;2.80;;;1.48;;
13202;SDS011;6666;51.626;7.530;2022-07-29T10:23:57;4.93;;;1.60;;
13202;SDS011;6666;51.626;7.530;2022-07-29T10:26:27;2.17;;;1.40;;
13202;SDS011;6666;51.626;7.530;2022-07-29T10:28:58;5.47;;;1.63;;
13202;SDS011;6666;51.626;7.530;2022-07-29T10:31:29;6.43;;;1.50;;
13202;SDS011;6666;51.626;7.530;2022-07-29T10:34:07;4.00;;;1.30;;
13202;SDS011;6666;51.626;7.530;2022-07-29T10:36:47;3.50;;;1.85;;
13202;SDS011;6666;51.626;7.530;2022-07-29T10:39:27;3.92;;;1.70;;
13202;SDS011;6666;51.626;7.530;2022-07-29T10:42:14;4.85;;;1.65;;
13202;SDS011;6666;51.626;7.530;2022-07-29T10:45:00;3.30;;;1.60;;
13202;SDS011;6666;51.626;7.530;2022-07-29T10:47:31;6.00;;;1.60;;
13202;SDS011;6666;51.626;7.530;2022-07-29T10:50:02;6.93;;;2.95;;
13202;SDS011;6666;51.626;7.530;2022-07-29T10:55:30;9.70;;;4.03;;
13202;SDS011;6666;51.626;7.530;2022-07-29T10:58:16;6.57;;;2.95;;
13202;SDS011;6666;51.626;7.530;2022-07-29T11:00:47;5.60;;;3.73;;
13202;SDS011;6666;51.626;7.530;2022-07-29T11:06:19;5.25;;;4.03;;
13202;SDS011;6666;51.626;7.530;2022-07-29T11:11:50;7.68;;;4.13;;
13202;SDS011;6666;51.626;7.530;2022-07-29T11:14:21;5.57;;;2.03;;
13202;SDS011;6666;51.626;7.530;2022-07-29T11:17:27;6.28;;;2.60;;
13202;SDS011;6666;51.626;7.530;2022-07-29T11:20:30;5.97;;;2.00;;
13202;SDS011;6666;51.626;7.530;2022-07-29T11:23:20;4.70;;;1.80;;
13202;SDS011;6666;51.626;7.530;2022-07-29T11:26:13;6.53;;;1.90;;
13202;SDS011;6666;51.626;7.530;2022-07-29T11:28:50;4.50;;;1.80;;
13202;SDS011;6666;51.626;7.530;2022-07-29T11:31:37;3.60;;;1.90;;
13202;SDS011;6666;51.626;7.530;2022-07-29T11:34:22;5.70;;;1.90;;
13202;SDS011;6666;51.626;7.530;2022-07-29T11:37:16;8.25;;;2.15;;
13202;SDS011;6666;51.626;7.530;2022-07-29T11:40:13;5.57;;;1.80;;
13202;SDS011;6666;51.626;7.530;2022-07-29T11:42:44;2.63;;;1.60;;
13202;SDS011;6666;51.626;7.530;2022-07-29T11:45:18;5.40;;;2.00;;
13202;SDS011;6666;51.626;7.530;2022-07-29T11:48:14;5.35;;;1.70;;
13202;SDS011;6666;51.626;7.530;2022-07-29T11:50:58;4.00;;;1.73;;
13202;SDS011;6666;51.626;7.530;2022-07-29T11:53:47;2.67;;;1.50;;
13202;SDS011;6666;51.626;7.530;2022-07-29T11:56:35;7.32;;;1.85;;
13202;SDS011;6666;51.626;7.530;2022-07-29T11:59:10;4.25;;;1.90;;
13202;SDS011;6666;51.626;7.530;2022-07-29T12:01:51;3.78;;;1.88;;
13202;SDS011;6666;51.626;7.530;2022-07-29T12:04:47;3.25;;;1.60;;
13202;SDS011;6666;51.626;7.530;2022-07-29T12:07:38;5.30;;;2.00;;
13202;SDS011;6666;51.626;7.530;2022-07-29T12:10:12;4.60;;;1.90;;
13202;SDS011;6666;51.626;7.530;2022-07-29T12:12:55;3.38;;;1.73;;
13202;SDS011;6666;51.626;7.530;2022-07-29T12:15:24;5.30;;;1.90;;
13202;SDS011;6666;51.626;7.530;2022-07-29T12:18:13;4.73;;;1.97;;
13202;SDS011;6666;51.626;7.530;2022-07-29T12:20:44;4.22;;;2.00;;
13202;SDS011;6666;51.626;7.530;2022-07-29T12:23:14;10.00;;;1.90;;
13202;SDS011;6666;51.626;7.530;2022-07-29T12:25:44;4.50;;;1.80;;
13202;SDS011;6666;51.626;7.530;2022-07-29T12:28:15;7.38;;;2.10;;
13202;SDS011;6666;51.626;7.530;2022-07-29T12:30:52;3.75;;;2.10;;
13202;SDS011;6666;51.626;7.530;2022-07-29T12:33:22;6.38;;;2.20;;
13202;SDS011;6666;51.626;7.530;2022-07-29T12:35:53;3.63;;;1.67;;
13202;SDS011;6666;51.626;7.530;2022-07-29T12:38:34;6.00;;;3.03;;
13202;SDS011;6666;51.626;7.530;2022-07-29T12:41:03;6.15;;;3.05;;
13202;SDS011;6666;51.626;7.530;2022-07-29T12:43:31;9.23;;;5.18;;
13202;SDS011;6666;51.626;7.530;2022-07-29T12:46:13;6.75;;;4.32;;
13202;SDS011;6666;51.626;7.530;2022-07-29T12:48:43;14.35;;;8.55;;
13202;SDS011;6666;51.626;7.530;2022-07-29T12:51:11;8.33;;;5.67;;
13202;SDS011;6666;51.626;7.530;2022-07-29T12:54:00;10.38;;;5.40;;
13202;SDS011;6666;51.626;7.530;2022-07-29T12:56:30;8.45;;;3.60;;
13202;SDS011;6666;51.626;7.530;2022-07-29T12:59:12;13.63;;;4.63;;
13202;SDS011;6666;51.626;7.530;2022-07-29T13:01:42;11.10;;;4.80;;
13202;SDS011;6666;51.626;7.530;2022-07-29T13:04:10;4.50;;;3.55;;
13202;SDS011;6666;51.626;7.530;2022-07-29T13:06:57;4.53;;;2.63;;
13202;SDS011;6666;51.626;7.530;2022-07-29T13:09:35;6.80;;;3.70;;
13202;SDS011;6666;51.626;7.530;2022-07-29T13:12:06;8.33;;;3.60;;
13202;SDS011;6666;51.626;7.530;2022-07-29T13:14:37;6.45;;;3.20;;
13202;SDS011;6666;51.626;7.530;2022-07-29T13:17:06;6.15;;;3.42;;
13202;SDS011;6666;51.626;7.530;2022-07-29T13:19:36;6.97;;;4.43;;
13202;SDS011;6666;51.626;7.530;2022-07-29T13:22:07;7.15;;;3.50;;
13202;SDS011;6666;51.626;7.530;2022-07-29T13:24:46;10.95;;;4.63;;
13202;SDS011;6666;51.626;7.530;2022-07-29T13:27:18;9.95;;;6.05;;
13202;SDS011;6666;51.626;7.530;2022-07-29T13:29:47;10.70;;;5.80;;
13202;SDS011;6666;51.626;7.530;2022-07-29T13:32:17;4.80;;;2.80;;
13202;SDS011;6666;51.626;7.530;2022-07-29T13:34:54;4.97;;;3.33;;
13202;SDS011;6666;51.626;7.530;2022-07-29T13:37:22;8.98;;;4.50;;
13202;SDS011;6666;51.626;7.530;2022-07-29T13:39:53;7.90;;;4.85;;
13202;SDS011;6666;51.626;7.530;2022-07-29T13:42:22;8.70;;;3.80;;
13202;SDS011;6666;51.626;7.530;2022-07-29T13:44:51;7.53;;;3.88;;
13202;SDS011;6666;51.626;7.530;2022-07-29T13:47:19;9.95;;;3.80;;
13202;SDS011;6666;51.626;7.530;2022-07-29T13:49:58;3.95;;;2.45;;
13202;SDS011;6666;51.626;7.530;2022-07-29T13:52:27;4.30;;;3.00;;
13202;SDS011;6666;51.626;7.530;2022-07-29T13:54:57;4.20;;;3.00;;
13202;SDS011;6666;51.626;7.530;2022-07-29T13:57:26;3.70;;;2.80;;
13202;SDS011;6666;51.626;7.530;2022-07-29T13:59:55;8.65;;;3.17;;
13202;SDS011;6666;51.626;7.530;2022-07-29T14:02:23;7.65;;;3.30;;
13202;SDS011;6666;51.626;7.530;2022-07-29T14:04:52;6.95;;;3.40;;
13202;SDS011;6666;51.626;7.530;2022-07-29T14:07:21;4.30;;;2.43;;
13202;SDS011;6666;51.626;7.530;2022-07-29T14:09:50;8.27;;;2.90;;
13202;SDS011;6666;51.626;7.530;2022-07-29T14:12:20;6.35;;;3.13;;
13202;SDS011;6666;51.626;7.530;2022-07-29T14:14:48;5.70;;;2.75;;
13202;SDS011;6666;51.626;7.530;2022-07-29T14:17:17;6.13;;;3.00;;
13202;SDS011;6666;51.626;7.530;2022-07-29T14:19:45;3.00;;;2.25;;
13202;SDS011;6666;51.626;7.530;2022-07-29T14:22:14;5.72;;;2.10;;
13202;SDS011;6666;51.626;7.530;2022-07-29T14:24:47;3.88;;;2.30;;
13202;SDS011;6666;51.626;7.530;2022-07-29T14:27:16;7.78;;;2.40;;
13202;SDS011;6666;51.626;7.530;2022-07-29T14:30:05;4.15;;;2.20;;
13202;SDS011;6666;51.626;7.530;2022-07-29T14:32:34;6.60;;;2.20;;
13202;SDS011;6666;51.626;7.530;2022-07-29T14:35:03;4.80;;;2.08;;
13202;SDS011;6666;51.626;7.530;2022-07-29T14:37:32;5.50;;;2.53;;
13202;SDS011;6666;51.626;7.530;2022-07-29T14:40:06;4.30;;;2.37;;
13202;SDS011;6666;51.626;7.530;2022-07-29T14:42:35;8.90;;;3.60;;
13202;SDS011;6666;51.626;7.530;2022-07-29T14:45:06;9.05;;;4.70;;
13202;SDS011;6666;51.626;7.530;2022-07-29T14:47:36;4.70;;;2.47;;
13202;SDS011;6666;51.626;7.530;2022-07-29T14:50:06;4.18;;;2.78;;
13202;SDS011;6666;51.626;7.530;2022-07-29T14:52:35;4.20;;;2.30;;
13202;SDS011;6666;51.626;7.530;2022-07-29T14:55:04;7.38;;;2.60;;
13202;SDS011;6666;51.626;7.530;2022-07-29T14:57:45;6.00;;;2.03;;
13202;SDS011;6666;51.626;7.530;2022-07-29T15:00:15;4.78;;;2.42;;
13202;SDS011;6666;51.626;7.530;2022-07-29T15:02:44;3.70;;;3.03;;
13202;SDS011;6666;51.626;7.530;2022-07-29T15:05:27;6.77;;;2.33;;
13202;SDS011;6666;51.626;7.530;2022-07-29T15:07:55;5.40;;;2.20;;
13202;SDS011;6666;51.626;7.530;2022-07-29T15:10:23;6.75;;;3.20;;
13202;SDS011;6666;51.626;7.530;2022-07-29T15:12:52;7.88;;;5.50;;
13202;SDS011;6666;51.626;7.530;2022-07-29T15:15:22;6.68;;;2.92;;
13202;SDS011;6666;51.626;7.530;2022-07-29T15:17:51;6.80;;;4.53;;
13202;SDS011;6666;51.626;7.530;2022-07-29T15:20:19;3.95;;;2.67;;
13202;SDS011;6666;51.626;7.530;2022-07-29T15:22:47;7.88;;;4.53;;
13202;SDS011;6666;51.626;7.530;2022-07-29T15:25:16;5.10;;;2.55;;
13202;SDS011;6666;51.626;7.530;2022-07-29T15:27:44;10.53;;;5.30;;
13202;SDS011;6666;51.626;7.530;2022-07-29T15:30:18;7.15;;;3.50;;
13202;SDS011;6666;51.626;7.530;2022-07-29T15:33:00;10.05;;;2.42;;
13202;SDS011;6666;51.626;7.530;2022-07-29T15:35:30;6.45;;;3.00;;
13202;SDS011;6666;51.626;7.530;2022-07-29T15:37:58;4.25;;;2.28;;
13202;SDS011;6666;51.626;7.530;2022-07-29T15:40:26;4.55;;;2.38;;
13202;SDS011;6666;51.626;7.530;2022-07-29T15:42:55;7.10;;;2.70;;
13202;SDS011;6666;51.626;7.530;2022-07-29T15:45:23;4.70;;;2.30;;